createdAt,value
2019-04-11T00:00:42.356Z,8.87
2019-04-11T00:03:11.375Z,10.00
2019-04-11T00:05:41.187Z,9.60
2019-04-11T00:08:10.187Z,9.43
2019-04-11T00:10:39.600Z,8.60
2019-04-11T00:13:18.273Z,9.50
2019-04-11T00:15:38.809Z,9.60
2019-04-11T00:18:08.262Z,10.07
2019-04-11T00:20:37.024Z,9.83
2019-04-11T00:23:06.109Z,10.10
2019-04-11T00:25:35.810Z,9.90
2019-04-11T00:28:05.770Z,9.00
2019-04-11T00:30:34.526Z,9.73
2019-04-11T00:33:03.265Z,9.37
2019-04-11T00:35:32.075Z,9.70
2019-04-11T00:38:01.399Z,9.40
2019-04-11T00:40:30.228Z,9.37
2019-04-11T00:42:59.002Z,9.53
2019-04-11T00:45:27.699Z,9.40
2019-04-11T00:47:57.463Z,9.20
2019-04-11T00:50:27.369Z,9.40
2019-04-11T00:52:57.898Z,9.23
2019-04-11T00:55:27.186Z,9.50
2019-04-11T00:57:57.014Z,9.30
2019-04-11T01:00:27.088Z,9.10
2019-04-11T01:02:55.945Z,9.17
2019-04-11T01:05:25.637Z,9.80
2019-04-11T01:07:55.422Z,9.73
2019-04-11T01:10:24.724Z,8.70
2019-04-11T01:12:53.572Z,9.30
2019-04-11T01:15:23.839Z,9.30
2019-04-11T01:17:52.517Z,8.87
2019-04-11T01:20:21.658Z,9.37
2019-04-11T01:22:50.804Z,8.90
2019-04-11T01:25:20.098Z,9.47
2019-04-11T01:27:49.997Z,9.50
2019-04-11T01:30:20.739Z,9.30
2019-04-11T01:32:50.467Z,10.30
2019-04-11T01:35:19.461Z,8.97
2019-04-11T01:37:48.250Z,9.50
2019-04-11T01:40:17.904Z,9.40
2019-04-11T01:42:47.137Z,9.10
2019-04-11T01:45:19.042Z,9.50
2019-04-11T01:47:55.327Z,8.30
2019-04-11T01:50:25.692Z,8.90
2019-04-11T01:52:55.020Z,9.80
2019-04-11T01:55:24.148Z,9.20
2019-04-11T01:57:53.994Z,8.50
2019-04-11T02:00:36.781Z,8.83
2019-04-11T02:03:07.296Z,9.37
2019-04-11T02:05:36.953Z,9.43
2019-04-11T02:08:06.998Z,9.67
2019-04-11T02:10:37.031Z,9.03
2019-04-11T02:13:05.968Z,8.87
2019-04-11T02:15:34.730Z,9.20
2019-04-11T02:18:03.528Z,9.20
2019-04-11T02:20:33.275Z,9.27
2019-04-11T02:23:13.062Z,9.30
2019-04-11T02:25:47.058Z,9.27
2019-04-11T02:28:17.564Z,8.57
2019-04-11T02:30:48.510Z,8.80
2019-04-11T02:33:18.351Z,9.13
2019-04-11T02:35:49.237Z,7.90
2019-04-11T02:38:18.952Z,8.70
2019-04-11T02:40:49.782Z,8.80
2019-04-11T02:43:20.215Z,8.80
2019-04-11T02:45:58.804Z,8.10
2019-04-11T02:48:20.673Z,8.90
2019-04-11T02:50:50.349Z,8.30
2019-04-11T02:53:21.252Z,8.70
2019-04-11T02:55:52.048Z,8.70
2019-04-11T02:58:22.871Z,8.30
2019-04-11T03:00:53.643Z,8.20
2019-04-11T03:03:23.179Z,8.67
2019-04-11T03:05:53.267Z,8.33
2019-04-11T03:08:24.053Z,8.13
2019-04-11T03:10:53.619Z,9.03
2019-04-11T03:13:23.312Z,8.30
2019-04-11T03:16:07.361Z,8.90
2019-04-11T03:18:40.699Z,8.27
2019-04-11T03:20:57.642Z,8.33
2019-04-11T03:23:25.628Z,7.73
2019-04-11T03:25:58.328Z,8.53
2019-04-11T03:28:30.584Z,8.40
2019-04-11T03:31:26.447Z,8.30
2019-04-11T03:34:24.365Z,8.13
2019-04-11T03:36:50.248Z,7.50
2019-04-11T03:38:55.130Z,8.30
2019-04-11T03:41:22.102Z,8.03
2019-04-11T03:43:41.841Z,7.43
2019-04-11T03:46:20.216Z,7.47
2019-04-11T03:48:45.056Z,8.00
2019-04-11T03:51:03.986Z,7.47
2019-04-11T03:53:34.281Z,7.43
2019-04-11T03:56:04.412Z,8.27
2019-04-11T03:58:33.713Z,7.30
2019-04-11T04:01:05.557Z,8.03
2019-04-11T04:03:34.219Z,8.00
2019-04-11T04:06:04.450Z,7.50
2019-04-11T04:08:34.252Z,8.37
2019-04-11T04:11:06.111Z,7.77
2019-04-11T04:13:38.766Z,8.13
2019-04-11T04:16:21.926Z,7.97
2019-04-11T04:18:47.822Z,8.23
2019-04-11T04:21:18.429Z,7.97
2019-04-11T04:23:47.457Z,8.47
2019-04-11T04:26:16.872Z,7.20
2019-04-11T04:28:47.377Z,7.73
2019-04-11T04:31:16.381Z,7.90
2019-04-11T04:33:47.197Z,7.97
2019-04-11T04:36:17.335Z,7.50
2019-04-11T04:38:46.582Z,7.80
2019-04-11T04:41:28.214Z,7.70
2019-04-11T04:43:48.099Z,7.37
2019-04-11T04:46:36.485Z,6.93
2019-04-11T04:48:49.417Z,7.13
2019-04-11T04:51:19.960Z,7.00
2019-04-11T04:53:49.944Z,8.07
2019-04-11T04:56:24.078Z,7.77
2019-04-11T04:58:50.737Z,7.20
2019-04-11T05:01:21.217Z,7.23
2019-04-11T05:03:50.911Z,7.50
2019-04-11T05:06:20.600Z,7.13
2019-04-11T05:08:49.518Z,6.97
2019-04-11T05:11:18.418Z,7.47
2019-04-11T05:13:50.674Z,7.40
2019-04-11T05:16:18.140Z,7.40
2019-04-11T05:18:46.891Z,7.20
2019-04-11T05:21:15.700Z,6.50
2019-04-11T05:23:44.515Z,6.67
2019-04-11T05:26:13.168Z,6.30
2019-04-11T05:28:42.176Z,6.03
2019-04-11T05:31:11.124Z,6.43
2019-04-11T05:33:39.826Z,5.70
2019-04-11T05:36:08.739Z,6.53
2019-04-11T05:38:37.933Z,5.97
2019-04-11T05:41:12.157Z,6.43
2019-04-11T05:43:41.304Z,7.00
2019-04-11T05:46:23.912Z,6.43
2019-04-11T05:48:45.234Z,5.87
2019-04-11T05:51:18.573Z,6.40
2019-04-11T05:53:44.380Z,6.53
2019-04-11T05:56:13.891Z,6.07
2019-04-11T05:58:47.043Z,6.13
2019-04-11T06:01:30.871Z,5.27
2019-04-11T06:04:14.219Z,5.83
2019-04-11T06:06:48.558Z,5.90
2019-04-11T06:09:22.961Z,5.40
2019-04-11T06:11:57.602Z,6.57
2019-04-11T06:14:28.393Z,6.30
2019-04-11T06:17:05.084Z,6.40
2019-04-11T06:19:51.907Z,6.10
2019-04-11T06:22:21.359Z,6.23
2019-04-11T06:24:56.446Z,6.40
2019-04-11T06:27:30.473Z,5.70
2019-04-11T06:30:18.564Z,6.80
2019-04-11T06:32:56.216Z,7.07
2019-04-11T06:35:35.859Z,5.93
2019-04-11T06:38:22.661Z,6.50
2019-04-11T06:40:56.131Z,5.87
2019-04-11T06:43:26.341Z,5.53
2019-04-11T06:46:13.235Z,6.33
2019-04-11T06:48:47.654Z,6.17
2019-04-11T06:51:24.138Z,5.70
2019-04-11T06:54:10.682Z,6.27
2019-04-11T06:56:41.281Z,5.67
2019-04-11T06:59:12.214Z,6.27
2019-04-11T07:01:42.599Z,5.55
2019-04-11T07:04:13.491Z,5.97
2019-04-11T07:06:43.940Z,6.77
2019-04-11T07:09:16.763Z,6.30
2019-04-11T07:11:50.732Z,5.80
2019-04-11T07:14:33.328Z,5.60
2019-04-11T07:17:20.964Z,5.40
2019-04-11T07:20:08.683Z,6.37
2019-04-11T07:22:55.297Z,5.90
2019-04-11T07:25:30.990Z,5.93
2019-04-11T07:28:09.986Z,6.20
2019-04-11T07:30:56.537Z,6.90
2019-04-11T07:33:31.229Z,6.40
2019-04-11T07:36:18.488Z,6.57
2019-04-11T07:38:52.322Z,5.97
2019-04-11T07:41:26.100Z,6.03
2019-04-11T07:43:54.813Z,6.30
2019-04-11T07:46:36.963Z,6.33
2019-04-11T07:49:06.019Z,6.27
2019-04-11T07:51:34.900Z,5.50
2019-04-11T07:54:04.790Z,6.10
2019-04-11T07:56:35.415Z,6.13
2019-04-11T07:59:08.729Z,5.40
2019-04-11T08:01:54.948Z,5.40
2019-04-11T08:04:27.829Z,5.80
2019-04-11T08:06:58.565Z,6.10
2019-04-11T08:09:29.055Z,5.27
2019-04-11T08:12:00.318Z,6.57
2019-04-11T08:14:45.606Z,5.73
2019-04-11T08:17:25.940Z,5.40
2019-04-11T08:19:49.007Z,5.00
2019-04-11T08:22:19.334Z,5.27
2019-04-11T08:25:01.922Z,5.60
2019-04-11T08:27:56.528Z,5.80
2019-04-11T08:30:22.540Z,5.40
2019-04-11T08:32:58.850Z,5.70
2019-04-11T08:35:30.170Z,5.50
2019-04-11T08:38:09.939Z,5.87
2019-04-11T08:40:53.365Z,5.67
2019-04-11T08:43:29.590Z,6.30
2019-04-11T08:46:06.732Z,5.80
2019-04-11T08:48:37.274Z,5.17
2019-04-11T08:51:13.251Z,6.37
2019-04-11T08:53:46.383Z,6.33
2019-04-11T08:56:19.515Z,5.50
2019-04-11T08:59:11.332Z,5.93
2019-04-11T09:01:40.610Z,7.93
2019-04-11T09:04:27.126Z,7.60
2019-04-11T09:06:57.321Z,7.70
2019-04-11T09:09:43.419Z,7.07
2019-04-11T09:12:14.217Z,6.60
2019-04-11T09:14:44.590Z,6.57
2019-04-11T09:17:16.387Z,6.90
2019-04-11T09:19:57.025Z,7.27
2019-04-11T09:22:31.072Z,6.07
2019-04-11T09:25:10.970Z,6.47
2019-04-11T09:27:57.673Z,6.13
2019-04-11T09:30:34.127Z,6.40
2019-04-11T09:33:20.770Z,6.10
2019-04-11T09:36:01.714Z,5.80
2019-04-11T09:38:34.819Z,6.50
2019-04-11T09:41:14.367Z,5.77
2019-04-11T09:43:44.274Z,6.28
2019-04-11T09:46:30.429Z,5.60
2019-04-11T09:49:04.504Z,5.93
2019-04-11T09:51:35.992Z,5.67
2019-04-11T09:54:19.676Z,6.47
2019-04-11T09:56:56.100Z,5.93
2019-04-11T09:59:42.367Z,6.70
2019-04-11T10:02:28.906Z,6.60
2019-04-11T10:05:01.226Z,6.40
2019-04-11T10:07:31.510Z,6.17
2019-04-11T10:10:04.677Z,6.40
2019-04-11T10:12:52.045Z,7.50
2019-04-11T10:15:23.264Z,7.73
2019-04-11T10:18:20.094Z,7.07
2019-04-11T10:20:42.586Z,6.67
2019-04-11T10:23:22.957Z,7.10
2019-04-11T10:25:53.721Z,5.90
2019-04-11T10:28:37.576Z,6.70
2019-04-11T10:31:08.512Z,6.23
2019-04-11T10:33:42.028Z,5.80
2019-04-11T10:36:12.661Z,5.27
2019-04-11T10:38:41.420Z,6.43
2019-04-11T10:41:12.493Z,5.80
2019-04-11T10:43:42.527Z,6.23
2019-04-11T10:46:15.964Z,6.47
2019-04-11T10:48:50.401Z,5.80
2019-04-11T10:51:24.598Z,6.30
2019-04-11T10:53:55.452Z,6.20
2019-04-11T10:56:26.467Z,6.60
2019-04-11T10:58:55.509Z,5.73
2019-04-11T11:01:31.780Z,5.97
2019-04-11T11:04:03.298Z,6.13
2019-04-11T11:06:33.721Z,6.00
2019-04-11T11:09:10.174Z,6.03
2019-04-11T11:11:40.857Z,5.67
2019-04-11T11:14:27.456Z,5.33
2019-04-11T11:17:00.809Z,5.60
2019-04-11T11:19:59.311Z,4.87
2019-04-11T11:22:34.915Z,5.63
2019-04-11T11:25:24.686Z,5.50
2019-04-11T11:27:55.737Z,5.50
2019-04-11T11:30:37.647Z,6.33
2019-04-11T11:33:07.903Z,6.67
2019-04-11T11:35:40.550Z,6.13
2019-04-11T11:38:11.400Z,6.50
2019-04-11T11:41:08.034Z,7.00
2019-04-11T11:43:37.035Z,7.07
2019-04-11T11:46:07.352Z,7.00
2019-04-11T11:48:37.744Z,6.13
2019-04-11T11:51:23.755Z,6.23
2019-04-11T11:54:11.496Z,6.57
2019-04-11T11:56:42.520Z,6.53
2019-04-11T11:59:16.986Z,6.13
2019-04-11T12:01:50.954Z,6.63
2019-04-11T12:04:32.942Z,6.00
2019-04-11T12:07:03.738Z,6.10
2019-04-11T12:09:36.334Z,5.63
2019-04-11T12:12:09.639Z,7.00
2019-04-11T12:14:44.979Z,7.17
2019-04-11T12:17:24.884Z,6.63
2019-04-11T12:20:09.744Z,6.53
2019-04-11T12:22:36.796Z,6.77
2019-04-11T12:25:07.506Z,7.37
2019-04-11T12:27:50.172Z,8.37
2019-04-11T12:30:29.705Z,7.57
2019-04-11T12:33:05.543Z,7.57
2019-04-11T12:35:36.051Z,7.87
2019-04-11T12:38:09.452Z,7.40
2019-04-11T12:40:55.603Z,6.67
2019-04-11T12:43:26.028Z,6.80
2019-04-11T12:46:12.721Z,6.20
2019-04-11T12:48:42.659Z,7.20
2019-04-11T12:51:28.889Z,6.60
2019-04-11T12:53:59.258Z,7.40
2019-04-11T12:56:46.012Z,8.23
2019-04-11T12:59:14.730Z,7.90
2019-04-11T13:01:45.354Z,8.00
2019-04-11T13:04:18.762Z,7.30
2019-04-11T13:06:49.132Z,7.70
2019-04-11T13:09:35.802Z,7.23
2019-04-11T13:12:06.261Z,8.20
2019-04-11T13:14:51.644Z,8.50
2019-04-11T13:17:24.836Z,8.97
2019-04-11T13:20:04.610Z,8.57
2019-04-11T13:22:29.953Z,8.30
2019-04-11T13:25:00.284Z,7.70
2019-04-11T13:27:30.679Z,8.60
2019-04-11T13:30:03.843Z,8.00
2019-04-11T13:32:34.215Z,8.53
2019-04-11T13:35:04.623Z,8.50
2019-04-11T13:37:51.010Z,8.50
2019-04-11T13:40:24.821Z,9.73
2019-04-11T13:43:11.351Z,10.07
2019-04-11T13:45:44.347Z,9.07
2019-04-11T13:48:31.066Z,8.70
2019-04-11T13:51:17.628Z,9.73
2019-04-11T13:53:56.675Z,8.90
2019-04-11T13:56:27.058Z,8.70
2019-04-11T13:59:13.561Z,8.50
2019-04-11T14:01:44.066Z,7.77
2019-04-11T14:04:20.423Z,7.53
2019-04-11T14:06:50.218Z,8.57
2019-04-11T14:09:20.611Z,7.50
2019-04-11T14:11:49.531Z,6.93
2019-04-11T14:14:22.384Z,7.70
2019-04-11T14:17:01.534Z,7.33
2019-04-11T14:19:43.850Z,7.17
2019-04-11T14:22:14.271Z,7.53
2019-04-11T14:25:00.582Z,7.87
2019-04-11T14:27:30.400Z,8.60
2019-04-11T14:30:12.314Z,7.57
2019-04-11T14:32:53.975Z,7.13
2019-04-11T14:35:35.553Z,7.30
2019-04-11T14:38:08.870Z,7.60
2019-04-11T14:41:01.968Z,6.97
2019-04-11T14:43:30.808Z,8.70
2019-04-11T14:46:17.109Z,8.70
2019-04-11T14:48:53.782Z,7.73
2019-04-11T14:51:29.944Z,8.13
2019-04-11T14:54:00.349Z,7.43
2019-04-11T14:56:39.303Z,8.10
2019-04-11T14:59:23.932Z,7.27
2019-04-11T15:01:53.444Z,7.23
2019-04-11T15:04:43.699Z,7.80
2019-04-11T15:07:12.830Z,7.00
2019-04-11T15:09:56.271Z,7.20
2019-04-11T15:12:26.647Z,6.60
2019-04-11T15:15:05.659Z,6.67
2019-04-11T15:17:36.203Z,8.27
2019-04-11T15:20:19.766Z,7.53
2019-04-11T15:23:02.273Z,7.40
2019-04-11T15:25:32.684Z,6.93
2019-04-11T15:28:12.605Z,8.50
2019-04-11T15:30:59.473Z,8.10
2019-04-11T15:33:35.709Z,8.17
2019-04-11T15:36:06.109Z,7.80
2019-04-11T15:38:52.626Z,8.27
2019-04-11T15:41:21.244Z,8.03
2019-04-11T15:44:13.929Z,7.50
2019-04-11T15:46:43.270Z,6.63
2019-04-11T15:49:29.550Z,7.27
2019-04-11T15:51:51.595Z,7.87
2019-04-11T15:54:24.656Z,7.90
2019-04-11T15:57:01.360Z,7.90
2019-04-11T15:59:31.884Z,7.50
2019-04-11T16:02:17.360Z,7.77
2019-04-11T16:04:47.691Z,7.70
2019-04-11T16:07:21.255Z,7.60
2019-04-11T16:09:50.764Z,9.57
2019-04-11T16:12:36.980Z,7.80
2019-04-11T16:15:19.395Z,9.00
2019-04-11T16:18:05.865Z,8.73
2019-04-11T16:20:34.985Z,7.83
2019-04-11T16:23:21.375Z,8.77
2019-04-11T16:25:51.769Z,8.20
2019-04-11T16:28:22.201Z,9.00
2019-04-11T16:30:52.719Z,8.23
2019-04-11T16:33:25.860Z,8.50
2019-04-11T16:35:57.234Z,8.10
2019-04-11T16:38:46.851Z,8.40
2019-04-11T16:41:32.499Z,9.30
2019-04-11T16:44:14.949Z,8.60
2019-04-11T16:47:01.368Z,8.17
2019-04-11T16:49:30.083Z,9.10
2019-04-11T16:51:58.839Z,8.50
2019-04-11T16:54:29.083Z,9.87
2019-04-11T16:56:58.002Z,8.10
2019-04-11T16:59:26.841Z,8.97
2019-04-11T17:01:55.583Z,9.50
2019-04-11T17:04:25.989Z,9.30
2019-04-11T17:06:56.485Z,8.77
2019-04-11T17:09:27.242Z,8.70
2019-04-11T17:11:56.798Z,9.77
2019-04-11T17:14:28.119Z,9.07
2019-04-11T17:17:00.651Z,9.53
2019-04-11T17:19:27.102Z,10.10
2019-04-11T17:21:55.970Z,9.37
2019-04-11T17:24:24.956Z,10.17
2019-04-11T17:26:53.764Z,9.30
2019-04-11T17:29:24.702Z,10.10
2019-04-11T17:31:55.707Z,10.10
2019-04-11T17:34:23.487Z,9.73
2019-04-11T17:36:52.234Z,10.30
2019-04-11T17:39:21.066Z,11.03
2019-04-11T17:41:49.880Z,10.30
2019-04-11T17:44:18.670Z,9.70
2019-04-11T17:46:47.453Z,9.97
2019-04-11T17:49:16.186Z,9.37
2019-04-11T17:51:55.244Z,9.23
2019-04-11T17:54:15.388Z,10.07
2019-04-11T17:56:44.202Z,9.37
2019-04-11T17:59:12.963Z,9.67
2019-04-11T18:01:41.731Z,8.80
2019-04-11T18:04:13.239Z,9.70
2019-04-11T18:06:40.680Z,10.57
2019-04-11T18:09:11.160Z,9.10
2019-04-11T18:11:40.159Z,8.97
2019-04-11T18:14:08.944Z,9.67
2019-04-11T18:16:37.753Z,10.27
2019-04-11T18:19:06.713Z,9.70
2019-04-11T18:21:38.657Z,8.70
2019-04-11T18:24:07.522Z,10.37
2019-04-11T18:26:36.312Z,9.60
2019-04-11T18:29:05.412Z,9.93
2019-04-11T18:31:34.215Z,10.77
2019-04-11T18:34:02.999Z,9.80
2019-04-11T18:36:32.509Z,10.40
2019-04-11T18:39:05.569Z,11.13
2019-04-11T18:41:31.691Z,9.87
2019-04-11T18:44:00.558Z,9.67
2019-04-11T18:46:29.153Z,8.80
2019-04-11T18:48:58.023Z,10.20
2019-04-11T18:51:26.807Z,9.43
2019-04-11T18:53:55.603Z,8.77
2019-04-11T18:56:24.288Z,9.83
2019-04-11T18:58:52.886Z,9.50
2019-04-11T19:01:21.792Z,9.57
2019-04-11T19:03:50.428Z,9.40
2019-04-11T19:06:27.633Z,9.67
2019-04-11T19:08:49.681Z,9.10
2019-04-11T19:11:18.510Z,9.43
2019-04-11T19:13:47.668Z,9.27
2019-04-11T19:16:19.463Z,9.10
2019-04-11T19:18:48.486Z,9.50
2019-04-11T19:21:20.183Z,8.93
2019-04-11T19:23:47.855Z,8.90
2019-04-11T19:26:16.555Z,8.80
2019-04-11T19:28:45.400Z,9.07
2019-04-11T19:31:14.233Z,9.90
2019-04-11T19:33:42.903Z,8.67
2019-04-11T19:36:12.279Z,8.90
2019-04-11T19:38:43.289Z,8.70
2019-04-11T19:41:12.146Z,8.17
2019-04-11T19:43:48.756Z,10.00
2019-04-11T19:46:15.284Z,9.37
2019-04-11T19:48:44.057Z,9.07
2019-04-11T19:51:17.170Z,9.20
2019-04-11T19:53:45.974Z,8.57
2019-04-11T19:56:20.763Z,9.17
2019-04-11T19:58:49.608Z,9.00
2019-04-11T20:01:18.476Z,8.53
2019-04-11T20:03:47.270Z,8.87
2019-04-11T20:06:16.135Z,8.90
2019-04-11T20:08:44.886Z,9.27
2019-04-11T20:11:13.640Z,8.67
2019-04-11T20:13:42.295Z,8.20
2019-04-11T20:16:12.495Z,9.00
2019-04-11T20:18:50.859Z,7.57
2019-04-11T20:21:12.026Z,9.80
2019-04-11T20:23:41.889Z,8.97
2019-04-11T20:26:11.213Z,8.10
2019-04-11T20:28:39.905Z,9.40
2019-04-11T20:31:08.518Z,7.93
2019-04-11T20:33:37.167Z,9.27
2019-04-11T20:36:08.096Z,9.33
2019-04-11T20:38:36.267Z,9.00
2019-04-11T20:41:05.094Z,8.80
2019-04-11T20:43:33.813Z,9.40
2019-04-11T20:46:03.287Z,8.93
2019-04-11T20:48:34.868Z,8.63
2019-04-11T20:51:02.317Z,8.83
2019-04-11T20:53:31.059Z,8.70
2019-04-11T20:55:59.854Z,9.20
2019-04-11T20:58:28.656Z,9.03
2019-04-11T21:00:57.507Z,9.20
2019-04-11T21:03:29.907Z,9.00
2019-04-11T21:05:58.970Z,9.30
2019-04-11T21:08:26.916Z,8.70
2019-04-11T21:10:55.583Z,9.07
2019-04-11T21:13:24.220Z,8.97
2019-04-11T21:15:53.101Z,8.70
2019-04-11T21:18:25.657Z,8.57
2019-04-11T21:20:55.033Z,8.20
2019-04-11T21:23:24.741Z,8.73
2019-04-11T21:25:53.002Z,9.83
2019-04-11T21:28:21.823Z,9.13
2019-04-11T21:30:50.633Z,9.43
2019-04-11T21:33:19.396Z,8.70
2019-04-11T21:35:48.078Z,8.40
2019-04-11T21:38:16.809Z,9.10
2019-04-11T21:40:48.351Z,9.13
2019-04-11T21:43:17.116Z,8.47
2019-04-11T21:45:45.794Z,9.50
2019-04-11T21:48:14.660Z,8.23
2019-04-11T21:50:43.401Z,9.37
2019-04-11T21:53:14.337Z,8.60
2019-04-11T21:55:47.035Z,9.10
2019-04-11T21:58:12.973Z,9.10
2019-04-11T22:00:45.440Z,9.93
2019-04-11T22:03:14.535Z,9.27
2019-04-11T22:05:43.321Z,9.00
2019-04-11T22:08:12.098Z,10.00
2019-04-11T22:10:41.064Z,8.40
2019-04-11T22:13:10.690Z,9.40
2019-04-11T22:15:42.166Z,9.20
2019-04-11T22:18:09.955Z,8.40
2019-04-11T22:20:38.715Z,8.23
2019-04-11T22:23:07.454Z,8.70
2019-04-11T22:25:36.170Z,9.60
2019-04-11T22:28:05.031Z,8.87
2019-04-11T22:30:33.740Z,8.20
2019-04-11T22:33:16.194Z,8.40
2019-04-11T22:35:44.892Z,8.23
2019-04-11T22:38:13.700Z,8.30
2019-04-11T22:40:42.539Z,8.63
2019-04-11T22:43:23.761Z,9.03
2019-04-11T22:45:41.622Z,8.80
2019-04-11T22:48:10.479Z,7.87
2019-04-11T22:50:40.678Z,9.20
2019-04-11T22:53:12.892Z,8.87
2019-04-11T22:55:41.290Z,8.63
2019-04-11T22:58:13.958Z,8.90
2019-04-11T23:00:45.047Z,9.03
2019-04-11T23:03:30.944Z,8.70
2019-04-11T23:05:59.785Z,8.60
2019-04-11T23:08:28.546Z,8.50
2019-04-11T23:10:57.246Z,8.20
2019-04-11T23:13:26.015Z,8.77
2019-04-11T23:15:54.920Z,8.93
2019-04-11T23:18:23.723Z,8.37
2019-04-11T23:20:52.539Z,8.73
2019-04-11T23:23:21.219Z,7.70
2019-04-11T23:25:49.955Z,8.77
2019-04-11T23:28:21.131Z,8.60
2019-04-11T23:30:50.496Z,8.13
2019-04-11T23:33:21.442Z,8.50
2019-04-11T23:35:51.199Z,7.10
2019-04-11T23:38:23.641Z,8.73
2019-04-11T23:40:51.247Z,7.97
2019-04-11T23:43:20.657Z,7.80
2019-04-11T23:45:51.169Z,7.90
2019-04-11T23:48:23.766Z,7.80
2019-04-11T23:50:50.293Z,7.13
2019-04-11T23:53:18.986Z,8.37
2019-04-11T23:55:47.700Z,7.40
2019-04-11T23:58:16.390Z,8.20
